createdAt,value
2022-11-11T00:01:22.741Z,4.40
2022-11-11T00:06:44.097Z,4.50
2022-11-11T00:12:05.901Z,4.40
2022-11-11T00:17:45.544Z,4.30
2022-11-11T00:23:33.687Z,4.20
2022-11-11T00:28:54.893Z,4.30
2022-11-11T00:34:15.902Z,4.20
2022-11-11T00:39:37.201Z,4.20
2022-11-11T00:44:58.317Z,4.20
2022-11-11T00:50:41.784Z,4.10
2022-11-11T00:56:03.023Z,4.10
2022-11-11T01:01:24.745Z,3.60
2022-11-11T01:06:46.012Z,3.50
2022-11-11T01:12:07.576Z,3.90
2022-11-11T01:17:29.672Z,4.00
2022-11-11T01:22:50.821Z,4.00
2022-11-11T01:28:11.963Z,4.10
2022-11-11T01:33:33.558Z,4.30
2022-11-11T01:38:57.163Z,4.30
2022-11-11T01:44:41.365Z,4.60
2022-11-11T01:50:03.443Z,4.60
2022-11-11T01:55:25.767Z,4.60
2022-11-11T02:00:46.864Z,4.40
2022-11-11T02:06:08.898Z,4.20
2022-11-11T02:11:52.124Z,4.10
2022-11-11T02:17:16.599Z,4.20
2022-11-11T02:23:02.200Z,4.20
2022-11-11T02:28:27.718Z,4.10
2022-11-11T02:33:49.310Z,4.00
2022-11-11T02:39:10.600Z,4.10
2022-11-11T02:44:31.814Z,4.20
2022-11-11T02:49:52.913Z,4.10
2022-11-11T02:55:14.959Z,4.20
2022-11-11T03:00:36.599Z,4.30
2022-11-11T03:05:58.253Z,4.40
2022-11-11T03:11:27.938Z,4.60
2022-11-11T03:17:08.424Z,4.70
2022-11-11T03:28:15.184Z,5.00
2022-11-11T03:33:35.974Z,5.30
2022-11-11T03:38:57.164Z,5.30
2022-11-11T03:44:18.018Z,5.50
2022-11-11T03:49:39.182Z,5.50
2022-11-11T03:55:00.690Z,5.70
2022-11-11T04:00:28.617Z,5.90
2022-11-11T04:06:07.960Z,5.90
2022-11-11T04:11:45.970Z,5.90
2022-11-11T04:17:07.192Z,5.90
2022-11-11T04:22:28.874Z,5.90
2022-11-11T04:28:09.926Z,5.80
2022-11-11T04:33:32.380Z,5.80
2022-11-11T04:39:11.780Z,5.80
2022-11-11T04:44:51.105Z,5.70
2022-11-11T04:50:12.166Z,5.70
2022-11-11T04:55:51.762Z,5.70
2022-11-11T05:01:33.132Z,5.80
2022-11-11T05:07:23.579Z,5.70
2022-11-11T05:12:47.635Z,5.60
2022-11-11T05:18:27.903Z,5.50
2022-11-11T05:24:09.098Z,5.60
2022-11-11T05:29:30.213Z,5.60
2022-11-11T05:34:52.101Z,5.60
2022-11-11T05:40:13.293Z,5.60
2022-11-11T05:45:34.509Z,5.50
2022-11-11T05:50:58.634Z,5.50
2022-11-11T05:56:19.879Z,5.40
2022-11-11T06:01:41.053Z,5.50
2022-11-11T06:07:02.218Z,5.50
2022-11-11T06:12:23.258Z,5.70
2022-11-11T06:17:44.273Z,5.80
2022-11-11T06:23:05.882Z,5.90
2022-11-11T06:28:27.188Z,6.10
2022-11-11T06:33:48.256Z,6.20
2022-11-11T06:39:09.511Z,6.30
2022-11-11T06:44:30.473Z,6.40
2022-11-11T06:49:54.863Z,6.50
2022-11-11T06:55:16.055Z,6.60
2022-11-11T07:00:39.237Z,6.70
2022-11-11T07:06:01.969Z,6.90
2022-11-11T07:11:23.173Z,6.90
2022-11-11T07:16:44.633Z,7.00
2022-11-11T07:22:06.301Z,7.10
2022-11-11T07:27:27.196Z,7.20
2022-11-11T07:32:50.703Z,7.40
2022-11-11T07:38:12.072Z,7.50
2022-11-11T07:43:33.871Z,7.70
2022-11-11T07:48:55.322Z,8.00
2022-11-11T07:54:16.623Z,8.10
2022-11-11T07:59:37.702Z,8.20
2022-11-11T08:04:58.696Z,8.60
2022-11-11T08:10:20.149Z,8.80
2022-11-11T08:15:41.942Z,8.90
2022-11-11T08:21:08.908Z,9.00
2022-11-11T08:26:30.150Z,9.10
2022-11-11T08:31:53.454Z,9.10
2022-11-11T08:37:14.653Z,9.20
2022-11-11T08:42:35.869Z,9.30
2022-11-11T08:47:56.960Z,9.50
2022-11-11T08:53:18.100Z,9.50
2022-11-11T08:58:39.279Z,9.60
2022-11-11T09:04:22.569Z,9.60
2022-11-11T09:09:42.046Z,9.60
2022-11-11T09:15:02.953Z,9.70
2022-11-11T09:20:25.417Z,9.80
2022-11-11T09:25:47.058Z,9.90
2022-11-11T09:31:43.334Z,9.90
2022-11-11T09:36:50.599Z,10.00
2022-11-11T09:42:39.339Z,10.10
2022-11-11T09:48:10.433Z,10.20
2022-11-11T09:53:42.045Z,10.30
2022-11-11T09:59:02.771Z,10.30
2022-11-11T10:04:30.329Z,10.20
2022-11-11T10:09:58.981Z,10.20
2022-11-11T10:15:20.711Z,10.30
2022-11-11T10:20:45.300Z,10.30
2022-11-11T10:26:32.802Z,10.30
2022-11-11T10:32:05.635Z,10.40
2022-11-11T10:37:38.857Z,10.40
2022-11-11T10:42:59.997Z,10.50
2022-11-11T10:48:31.449Z,10.50
2022-11-11T10:54:04.937Z,10.60
2022-11-11T10:59:40.717Z,10.60
2022-11-11T11:05:22.694Z,10.60
2022-11-11T11:11:24.805Z,10.60
2022-11-11T11:16:55.848Z,10.70
2022-11-11T11:22:17.616Z,10.80
2022-11-11T11:27:38.674Z,10.80
2022-11-11T11:33:02.108Z,10.80
2022-11-11T11:38:41.805Z,10.90
2022-11-11T11:44:03.132Z,10.70
2022-11-11T11:49:42.252Z,10.60
2022-11-11T11:55:12.357Z,10.60
2022-11-11T12:00:43.311Z,10.60
2022-11-11T12:06:18.726Z,10.60
2022-11-11T12:12:06.138Z,10.70
2022-11-11T12:17:49.538Z,10.80
2022-11-11T12:23:23.961Z,10.80
2022-11-11T12:29:03.380Z,10.90
2022-11-11T12:34:27.109Z,11.00
2022-11-11T12:39:54.261Z,11.00
2022-11-11T12:45:21.967Z,11.00
2022-11-11T12:51:18.778Z,11.00
2022-11-11T12:56:51.934Z,10.90
2022-11-11T13:02:20.858Z,10.90
2022-11-11T13:08:02.014Z,11.00
2022-11-11T13:13:34.445Z,11.00
2022-11-11T13:19:09.841Z,11.00
2022-11-11T13:24:32.897Z,10.90
2022-11-11T13:30:19.130Z,10.90
2022-11-11T13:35:49.604Z,10.90
2022-11-11T13:41:11.382Z,10.80
2022-11-11T13:46:48.494Z,10.70
2022-11-11T13:52:46.951Z,10.50
2022-11-11T13:58:22.188Z,10.40
2022-11-11T14:03:46.116Z,10.30
2022-11-11T14:09:08.586Z,10.10
2022-11-11T14:14:32.716Z,10.10
2022-11-11T14:19:53.801Z,10.00
2022-11-11T14:25:28.470Z,10.00
2022-11-11T14:30:50.352Z,9.90
2022-11-11T14:36:41.329Z,9.80
2022-11-11T14:42:02.994Z,9.70
2022-11-11T14:47:45.973Z,9.60
2022-11-11T14:53:17.546Z,9.40
2022-11-11T14:58:38.919Z,9.30
2022-11-11T15:04:03.354Z,9.10
2022-11-11T15:09:51.450Z,9.20
2022-11-11T15:15:15.374Z,9.10
2022-11-11T15:20:55.662Z,9.10
2022-11-11T15:26:50.392Z,8.90
2022-11-11T15:32:14.763Z,8.90
2022-11-11T15:37:37.125Z,8.70
2022-11-11T15:42:59.928Z,8.60
2022-11-11T15:48:28.270Z,8.50
2022-11-11T15:53:49.628Z,8.50
2022-11-11T15:59:25.223Z,8.40
2022-11-11T16:04:56.784Z,8.40
2022-11-11T16:10:39.426Z,8.40
2022-11-11T16:16:16.317Z,8.50
2022-11-11T16:22:03.498Z,8.60
2022-11-11T16:27:33.368Z,8.80
2022-11-11T16:32:54.322Z,8.90
2022-11-11T16:38:36.263Z,9.00
2022-11-11T16:43:58.240Z,9.00
2022-11-11T16:49:39.026Z,9.10
2022-11-11T16:55:01.233Z,9.10
2022-11-11T17:00:23.956Z,9.20
2022-11-11T17:05:57.243Z,9.20
2022-11-11T17:11:40.235Z,9.10
2022-11-11T17:17:02.727Z,9.20
2022-11-11T17:22:23.835Z,9.20
2022-11-11T17:27:45.398Z,9.20
2022-11-11T17:33:06.918Z,9.20
2022-11-11T17:38:28.749Z,9.20
2022-11-11T17:43:49.769Z,9.30
2022-11-11T17:49:13.811Z,9.20
2022-11-11T17:54:35.271Z,9.30
2022-11-11T17:59:56.455Z,9.30
2022-11-11T18:05:17.731Z,9.20
2022-11-11T18:10:38.541Z,9.20
2022-11-11T18:16:05.650Z,9.30
2022-11-11T18:21:28.959Z,9.20
2022-11-11T18:26:50.111Z,9.10
2022-11-11T18:32:11.622Z,9.10
2022-11-11T18:37:32.507Z,9.00
2022-11-11T18:42:53.754Z,9.10
2022-11-11T18:48:15.814Z,9.00
2022-11-11T18:53:38.514Z,9.00
2022-11-11T18:59:01.295Z,9.00
2022-11-11T19:04:22.315Z,9.00
2022-11-11T19:09:43.589Z,9.00
2022-11-11T19:15:05.696Z,8.90
2022-11-11T19:20:26.597Z,8.90
2022-11-11T19:25:47.685Z,8.80
2022-11-11T19:31:19.477Z,8.70
2022-11-11T19:36:40.395Z,8.70
2022-11-11T19:42:01.573Z,8.60
2022-11-11T19:47:22.757Z,8.50
2022-11-11T19:52:44.199Z,8.30
2022-11-11T19:58:05.450Z,8.10
2022-11-11T20:03:26.686Z,7.90
2022-11-11T20:08:48.575Z,7.60
2022-11-11T20:14:10.010Z,7.50
2022-11-11T20:19:31.282Z,7.50
2022-11-11T20:24:52.729Z,7.60
2022-11-11T20:30:13.949Z,7.40
2022-11-11T20:35:38.495Z,7.20
2022-11-11T20:41:05.793Z,6.90
2022-11-11T20:46:26.646Z,6.60
2022-11-11T20:51:47.871Z,6.50
2022-11-11T20:57:09.566Z,6.30
2022-11-11T21:02:30.627Z,6.00
2022-11-11T21:07:51.645Z,5.70
2022-11-11T21:13:12.906Z,5.30
2022-11-11T21:18:34.891Z,5.20
2022-11-11T21:24:07.182Z,5.30
2022-11-11T21:29:28.310Z,5.30
2022-11-11T21:34:49.940Z,5.20
2022-11-11T21:40:11.710Z,5.00
2022-11-11T21:45:32.887Z,4.90
2022-11-11T21:51:00.255Z,4.80
2022-11-11T21:56:22.811Z,4.70
2022-11-11T22:01:46.165Z,4.50
2022-11-11T22:07:07.492Z,4.40
2022-11-11T22:12:32.171Z,4.20
2022-11-11T22:18:02.265Z,4.10
2022-11-11T22:23:23.226Z,3.90
2022-11-11T22:28:47.317Z,3.80
2022-11-11T22:34:13.008Z,3.80
2022-11-11T22:39:34.792Z,3.60
2022-11-11T22:44:55.953Z,3.70
2022-11-11T22:50:17.263Z,3.70
2022-11-11T22:55:38.461Z,3.60
2022-11-11T23:01:04.972Z,3.60
2022-11-11T23:06:27.601Z,3.30
2022-11-11T23:11:49.213Z,2.90
2022-11-11T23:17:09.964Z,3.00
2022-11-11T23:22:31.258Z,3.10
2022-11-11T23:27:52.524Z,2.90
2022-11-11T23:33:13.583Z,3.10
2022-11-11T23:38:35.534Z,3.30
2022-11-11T23:43:56.518Z,3.30
2022-11-11T23:49:18.261Z,3.00
2022-11-11T23:54:39.449Z,2.80
